createdAt,value
2017-09-29T00:00:06.943Z,24.7
2017-09-29T00:01:09.069Z,24.6
2017-09-29T00:02:11.197Z,24.7
2017-09-29T00:03:12.966Z,24.7
2017-09-29T00:04:14.736Z,24.7
2017-09-29T00:05:16.530Z,24.7
2017-09-29T00:06:18.656Z,24.6
2017-09-29T00:07:20.447Z,24.7
2017-09-29T00:08:22.256Z,24.6
2017-09-29T00:09:24.045Z,24.6
2017-09-29T00:10:26.173Z,24.7
2017-09-29T00:11:28.301Z,24.6
2017-09-29T00:12:30.094Z,24.7
2017-09-29T00:13:31.533Z,24.6
2017-09-29T00:14:33.325Z,24.7
2017-09-29T00:15:34.757Z,24.7
2017-09-29T00:16:36.886Z,24.6
2017-09-29T00:17:38.680Z,24.6
2017-09-29T00:18:40.475Z,24.6
2017-09-29T00:19:42.626Z,24.6
2017-09-29T00:20:44.386Z,24.6
2017-09-29T00:21:46.161Z,24.6
2017-09-29T00:22:47.262Z,24.7
2017-09-29T00:23:48.361Z,24.6
2017-09-29T00:24:49.488Z,24.6
2017-09-29T00:25:51.256Z,24.7
2017-09-29T00:26:52.697Z,24.7
2017-09-29T00:27:54.135Z,24.7
2017-09-29T00:28:55.928Z,24.7
2017-09-29T00:29:57.385Z,24.7
2017-09-29T00:30:59.179Z,24.6
2017-09-29T00:32:00.280Z,24.7
2017-09-29T00:33:02.406Z,24.7
2017-09-29T00:34:03.864Z,24.6
2017-09-29T00:35:05.659Z,24.7
2017-09-29T00:36:07.429Z,24.7
2017-09-29T00:37:08.884Z,24.7
2017-09-29T00:38:10.316Z,24.6
2017-09-29T00:39:11.754Z,24.7
2017-09-29T00:40:13.207Z,24.7
2017-09-29T00:41:15.003Z,24.7
2017-09-29T00:42:16.459Z,24.7
2017-09-29T00:43:18.251Z,24.7
2017-09-29T00:44:20.053Z,24.7
2017-09-29T00:45:22.175Z,24.7
2017-09-29T00:46:23.967Z,24.6
2017-09-29T00:47:25.741Z,24.7
2017-09-29T00:48:27.199Z,24.6
2017-09-29T00:49:28.972Z,24.7
2017-09-29T00:50:30.433Z,24.7
2017-09-29T00:51:32.226Z,24.6
2017-09-29T00:52:34.021Z,24.7
2017-09-29T00:53:36.149Z,24.7
2017-09-29T00:54:38.277Z,24.7
2017-09-29T00:55:40.071Z,24.7
2017-09-29T00:56:41.861Z,24.7
2017-09-29T00:57:43.654Z,24.6
2017-09-29T00:58:45.096Z,24.7
2017-09-29T00:59:46.197Z,24.7
2017-09-29T01:00:47.632Z,24.7
2017-09-29T01:01:49.425Z,24.7
2017-09-29T01:02:51.225Z,24.7
2017-09-29T01:03:52.656Z,24.6
2017-09-29T01:04:54.429Z,24.7
2017-09-29T01:05:56.254Z,24.7
2017-09-29T01:06:58.011Z,24.7
2017-09-29T01:07:59.484Z,24.7
2017-09-29T01:09:01.297Z,24.7
2017-09-29T01:10:03.427Z,24.7
2017-09-29T01:11:05.554Z,24.7
2017-09-29T01:12:06.660Z,24.6
2017-09-29T01:13:08.095Z,24.6
2017-09-29T01:14:10.221Z,24.6
2017-09-29T01:15:11.681Z,24.7
2017-09-29T01:16:13.139Z,24.7
2017-09-29T01:17:14.595Z,24.7
2017-09-29T01:18:15.716Z,24.7
2017-09-29T01:19:17.845Z,24.7
2017-09-29T01:20:19.303Z,24.7
2017-09-29T01:21:21.075Z,24.6
2017-09-29T01:22:23.205Z,24.6
2017-09-29T01:23:24.975Z,24.7
2017-09-29T01:24:26.768Z,24.6
2017-09-29T01:25:28.555Z,24.6
2017-09-29T01:26:29.660Z,24.7
2017-09-29T01:27:31.453Z,24.7
2017-09-29T01:28:32.903Z,24.7
2017-09-29T01:29:34.340Z,24.7
2017-09-29T01:30:35.817Z,24.6
2017-09-29T01:31:37.613Z,24.6
2017-09-29T01:32:39.746Z,24.7
2017-09-29T01:33:41.871Z,24.6
2017-09-29T01:34:42.973Z,24.7
2017-09-29T01:35:45.101Z,24.7
2017-09-29T01:36:46.894Z,24.7
2017-09-29T01:37:48.686Z,24.6
2017-09-29T01:38:50.479Z,24.6
2017-09-29T01:39:52.248Z,24.7
2017-09-29T01:40:54.041Z,24.6
2017-09-29T01:41:56.168Z,24.7
2017-09-29T01:42:57.959Z,24.6
2017-09-29T01:44:00.090Z,24.6
2017-09-29T01:45:01.190Z,24.6
2017-09-29T01:46:02.985Z,24.6
2017-09-29T01:47:04.792Z,24.7
2017-09-29T01:48:06.911Z,24.6
2017-09-29T01:49:08.690Z,24.7
2017-09-29T01:50:10.124Z,24.6
2017-09-29T01:51:11.923Z,24.6
2017-09-29T01:52:14.049Z,24.6
2017-09-29T01:53:15.853Z,24.6
2017-09-29T01:54:17.624Z,24.6
2017-09-29T01:55:19.063Z,24.6
2017-09-29T01:56:20.855Z,24.6
2017-09-29T01:57:21.960Z,24.6
2017-09-29T01:58:23.751Z,24.6
2017-09-29T01:59:25.208Z,24.6
2017-09-29T02:00:27.015Z,24.6
2017-09-29T02:01:29.131Z,24.6
2017-09-29T02:02:31.263Z,24.6
2017-09-29T02:03:32.383Z,24.6
2017-09-29T02:04:34.507Z,24.6
2017-09-29T02:05:35.965Z,24.6
2017-09-29T02:06:37.422Z,24.6
2017-09-29T02:07:39.215Z,24.6
2017-09-29T02:08:41.007Z,24.6
2017-09-29T02:09:42.447Z,24.6
2017-09-29T02:10:44.242Z,24.6
2017-09-29T02:11:45.698Z,24.7
2017-09-29T02:12:46.802Z,24.6
2017-09-29T02:13:48.575Z,24.6
2017-09-29T02:14:50.366Z,24.6
2017-09-29T02:15:52.159Z,24.6
2017-09-29T02:16:53.594Z,24.6
2017-09-29T02:17:55.723Z,24.6
2017-09-29T02:18:57.186Z,24.6
2017-09-29T02:19:58.976Z,24.6
2017-09-29T02:21:01.103Z,24.6
2017-09-29T02:22:03.231Z,24.6
2017-09-29T02:23:04.358Z,24.6
2017-09-29T02:24:05.828Z,24.6
2017-09-29T02:25:07.256Z,24.6
2017-09-29T02:26:08.711Z,24.6
2017-09-29T02:27:10.145Z,24.6
2017-09-29T02:28:12.271Z,24.6
2017-09-29T02:29:13.708Z,24.6
2017-09-29T02:30:15.145Z,24.6
2017-09-29T02:31:16.914Z,24.7
2017-09-29T02:32:18.375Z,24.6
2017-09-29T02:33:20.503Z,24.5
2017-09-29T02:34:22.631Z,24.6
2017-09-29T02:35:24.422Z,24.6
2017-09-29T02:36:26.215Z,24.6
2017-09-29T02:37:28.361Z,24.6
2017-09-29T02:38:30.134Z,24.6
2017-09-29T02:39:31.906Z,24.5
2017-09-29T02:40:34.046Z,24.6
2017-09-29T02:41:35.840Z,24.5
2017-09-29T02:42:36.940Z,24.6
2017-09-29T02:43:39.069Z,24.6
2017-09-29T02:44:40.533Z,24.6
2017-09-29T02:45:42.327Z,24.6
2017-09-29T02:46:44.454Z,24.6
2017-09-29T02:47:46.247Z,24.6
2017-09-29T02:48:48.375Z,24.6
2017-09-29T02:49:50.502Z,24.6
2017-09-29T02:50:51.939Z,24.6
2017-09-29T02:51:54.067Z,24.6
2017-09-29T02:52:55.863Z,24.6
2017-09-29T02:53:57.664Z,24.6
2017-09-29T02:54:59.453Z,24.6
2017-09-29T02:56:00.553Z,24.6
2017-09-29T02:57:01.320Z,24.7
2017-09-29T02:58:03.112Z,24.6
2017-09-29T02:59:04.904Z,24.6
2017-09-29T03:00:06.670Z,24.6
2017-09-29T03:01:08.109Z,24.6
2017-09-29T03:02:09.902Z,24.7
2017-09-29T03:03:11.007Z,24.5
2017-09-29T03:04:12.798Z,24.6
2017-09-29T03:05:14.925Z,24.6
2017-09-29T03:06:17.054Z,24.6
2017-09-29T03:07:19.182Z,24.6
2017-09-29T03:08:20.950Z,24.6
2017-09-29T03:09:22.406Z,24.6
2017-09-29T03:10:24.200Z,24.6
2017-09-29T03:11:25.992Z,24.6
2017-09-29T03:12:28.120Z,24.6
2017-09-29T03:13:29.913Z,24.7
2017-09-29T03:14:31.353Z,24.6
2017-09-29T03:15:33.480Z,24.6
2017-09-29T03:16:35.274Z,24.6
2017-09-29T03:17:37.066Z,24.7
2017-09-29T03:18:39.194Z,24.5
2017-09-29T03:19:40.317Z,24.6
2017-09-29T03:20:41.754Z,24.5
2017-09-29T03:21:43.545Z,24.6
2017-09-29T03:22:45.336Z,24.6
2017-09-29T03:23:46.466Z,24.6
2017-09-29T03:24:47.922Z,24.6
2017-09-29T03:25:49.360Z,24.6
2017-09-29T03:26:51.127Z,24.6
2017-09-29T03:27:52.898Z,24.5
2017-09-29T03:28:55.023Z,24.6
2017-09-29T03:29:57.151Z,24.6
2017-09-29T03:30:58.620Z,24.6
2017-09-29T03:32:00.414Z,24.6
2017-09-29T03:33:02.539Z,24.5
2017-09-29T03:34:03.996Z,24.6
2017-09-29T03:35:05.104Z,24.6
2017-09-29T03:36:06.533Z,24.6
2017-09-29T03:37:08.328Z,24.6
2017-09-29T03:38:10.122Z,24.6
2017-09-29T03:39:11.555Z,24.6
2017-09-29T03:40:13.681Z,24.6
2017-09-29T03:41:15.476Z,24.6
2017-09-29T03:42:17.603Z,24.6
2017-09-29T03:43:19.385Z,24.6
2017-09-29T03:44:21.503Z,24.6
2017-09-29T03:45:23.635Z,24.5
2017-09-29T03:46:25.425Z,24.6
2017-09-29T03:47:27.553Z,24.5
2017-09-29T03:48:29.680Z,24.6
2017-09-29T03:49:31.473Z,24.6
2017-09-29T03:50:32.577Z,24.6
2017-09-29T03:51:34.344Z,24.5
2017-09-29T03:52:35.790Z,24.6
2017-09-29T03:53:37.916Z,24.6
2017-09-29T03:54:39.690Z,24.6
2017-09-29T03:55:40.795Z,24.6
2017-09-29T03:56:43.021Z,24.6
2017-09-29T03:57:44.803Z,24.5
2017-09-29T03:58:46.292Z,24.6
2017-09-29T03:59:48.091Z,24.5
2017-09-29T04:00:50.218Z,24.5
2017-09-29T04:01:52.006Z,24.5
2017-09-29T04:02:54.137Z,24.6
2017-09-29T04:03:56.264Z,24.6
2017-09-29T04:04:58.393Z,24.5
2017-09-29T04:05:59.851Z,24.6
2017-09-29T04:07:01.625Z,24.6
2017-09-29T04:08:03.059Z,24.5
2017-09-29T04:09:04.516Z,24.6
2017-09-29T04:10:06.308Z,24.6
2017-09-29T04:11:08.119Z,24.5
2017-09-29T04:12:09.908Z,24.5
2017-09-29T04:13:11.341Z,24.6
2017-09-29T04:14:13.113Z,24.5
2017-09-29T04:15:14.902Z,24.5
2017-09-29T04:16:16.674Z,24.6
2017-09-29T04:17:18.801Z,24.6
2017-09-29T04:18:20.234Z,24.6
2017-09-29T04:19:22.025Z,24.6
2017-09-29T04:20:23.471Z,24.5
2017-09-29T04:21:25.294Z,24.6
2017-09-29T04:22:27.405Z,24.6
2017-09-29T04:23:29.534Z,24.5
2017-09-29T04:24:31.658Z,24.6
2017-09-29T04:25:33.787Z,24.6
2017-09-29T04:26:35.577Z,24.5
2017-09-29T04:27:37.370Z,24.5
2017-09-29T04:28:39.163Z,24.5
2017-09-29T04:29:40.601Z,24.5
2017-09-29T04:30:42.370Z,24.5
2017-09-29T04:31:44.501Z,24.5
2017-09-29T04:32:45.962Z,24.5
2017-09-29T04:33:47.401Z,24.5
2017-09-29T04:34:49.194Z,24.6
2017-09-29T04:35:50.987Z,24.5
2017-09-29T04:36:52.779Z,24.6
2017-09-29T04:37:54.906Z,24.5
2017-09-29T04:38:56.701Z,24.6
2017-09-29T04:39:58.830Z,24.5
2017-09-29T04:41:00.956Z,24.5
2017-09-29T04:42:02.741Z,24.6
2017-09-29T04:43:04.177Z,24.5
2017-09-29T04:44:05.283Z,24.5
2017-09-29T04:45:06.739Z,24.6
2017-09-29T04:46:07.839Z,24.6
2017-09-29T04:47:09.632Z,24.5
2017-09-29T04:48:11.756Z,24.5
2017-09-29T04:49:13.197Z,24.5
2017-09-29T04:50:14.628Z,24.6
2017-09-29T04:51:16.423Z,24.6
2017-09-29T04:52:18.555Z,24.5
2017-09-29T04:53:19.656Z,24.6
2017-09-29T04:54:21.451Z,24.6
2017-09-29T04:55:23.244Z,24.6
2017-09-29T04:56:24.703Z,24.6
2017-09-29T04:57:26.160Z,24.6
2017-09-29T04:58:27.962Z,24.7
2017-09-29T04:59:30.089Z,24.6
2017-09-29T05:00:32.215Z,24.6
2017-09-29T05:01:34.009Z,24.6
2017-09-29T05:02:36.141Z,24.6
2017-09-29T05:03:38.270Z,24.6
2017-09-29T05:04:40.060Z,24.6
2017-09-29T05:05:41.833Z,24.6
2017-09-29T05:06:43.963Z,24.6
2017-09-29T05:07:45.757Z,24.6
2017-09-29T05:08:47.548Z,24.6
2017-09-29T05:09:49.340Z,24.6
2017-09-29T05:10:51.135Z,24.6
2017-09-29T05:11:52.233Z,24.6
2017-09-29T05:12:54.082Z,24.5
2017-09-29T05:13:55.878Z,24.6
2017-09-29T05:14:58.004Z,24.6
2017-09-29T05:15:59.796Z,24.6
2017-09-29T05:17:01.589Z,24.6
2017-09-29T05:18:03.381Z,24.6
2017-09-29T05:19:05.177Z,24.6
2017-09-29T05:20:07.304Z,24.6
2017-09-29T05:21:09.432Z,24.6
2017-09-29T05:22:10.895Z,24.6
2017-09-29T05:23:13.025Z,24.5
2017-09-29T05:24:14.466Z,24.6
2017-09-29T05:25:15.568Z,24.6
2017-09-29T05:26:17.029Z,24.6
2017-09-29T05:27:18.489Z,24.6
2017-09-29T05:28:20.307Z,24.6
2017-09-29T05:29:21.766Z,24.6
2017-09-29T05:30:23.558Z,24.6
2017-09-29T05:31:24.998Z,24.7
2017-09-29T05:32:27.129Z,24.6
2017-09-29T05:33:28.236Z,24.6
2017-09-29T05:34:30.027Z,24.6
2017-09-29T05:35:32.156Z,24.6
2017-09-29T05:36:34.283Z,24.6
2017-09-29T05:37:36.077Z,24.6
2017-09-29T05:38:37.869Z,24.6
2017-09-29T05:39:40.004Z,24.6
2017-09-29T05:40:41.771Z,24.6
2017-09-29T05:41:43.565Z,24.6
2017-09-29T05:42:44.691Z,24.6
2017-09-29T05:43:46.485Z,24.6
2017-09-29T05:44:47.926Z,24.6
2017-09-29T05:45:49.718Z,24.6
2017-09-29T05:46:51.846Z,24.7
2017-09-29T05:47:52.973Z,24.6
2017-09-29T05:48:54.439Z,24.7
2017-09-29T05:49:56.217Z,24.7
2017-09-29T05:50:57.991Z,24.6
2017-09-29T05:51:59.450Z,24.7
2017-09-29T05:53:00.915Z,24.6
2017-09-29T05:54:02.356Z,24.7
2017-09-29T05:55:04.150Z,24.6
2017-09-29T05:56:05.256Z,24.7
2017-09-29T05:57:07.386Z,24.6
2017-09-29T05:58:09.162Z,24.6
2017-09-29T05:59:10.417Z,24.7
2017-09-29T06:00:12.193Z,24.6
2017-09-29T06:01:14.322Z,24.7
2017-09-29T06:02:16.117Z,24.7
2017-09-29T06:03:17.576Z,24.7
2017-09-29T06:04:19.705Z,24.7
2017-09-29T06:05:21.161Z,24.7
2017-09-29T06:06:22.283Z,24.7
2017-09-29T06:07:24.086Z,24.7
2017-09-29T06:08:25.526Z,24.7
2017-09-29T06:09:27.293Z,24.7
2017-09-29T06:10:29.439Z,24.7
2017-09-29T06:11:31.314Z,24.7
2017-09-29T06:12:33.440Z,24.7
2017-09-29T06:13:35.567Z,24.7
2017-09-29T06:14:37.048Z,24.7
2017-09-29T06:15:38.959Z,24.6
2017-09-29T06:16:41.094Z,24.6
2017-09-29T06:17:42.884Z,24.7
2017-09-29T06:18:44.706Z,24.6
2017-09-29T06:19:46.512Z,24.6
2017-09-29T06:20:48.741Z,24.6
2017-09-29T06:21:50.205Z,24.7
2017-09-29T06:22:51.662Z,24.7
2017-09-29T06:23:52.835Z,24.7
2017-09-29T06:24:53.963Z,24.6
2017-09-29T06:25:55.422Z,24.7
2017-09-29T06:26:56.924Z,24.7
2017-09-29T06:27:58.771Z,24.7
2017-09-29T06:29:00.211Z,24.7
2017-09-29T06:30:02.101Z,24.7
2017-09-29T06:31:04.264Z,24.6
2017-09-29T06:32:05.699Z,24.7
2017-09-29T06:33:06.891Z,24.7
2017-09-29T06:34:08.712Z,24.7
2017-09-29T06:35:10.220Z,24.7
2017-09-29T06:36:12.064Z,24.7
2017-09-29T06:37:13.869Z,24.7
2017-09-29T06:38:16.042Z,24.7
2017-09-29T06:39:17.871Z,24.7
2017-09-29T06:40:20.142Z,24.6
2017-09-29T06:41:21.965Z,24.8
2017-09-29T06:42:23.827Z,24.7
2017-09-29T06:43:25.282Z,24.7
2017-09-29T06:44:27.438Z,24.7
2017-09-29T06:45:29.609Z,24.6
2017-09-29T06:46:31.064Z,24.7
2017-09-29T06:47:32.837Z,24.7
2017-09-29T06:48:34.696Z,24.7
2017-09-29T06:49:36.833Z,24.7
2017-09-29T06:50:38.406Z,24.7
2017-09-29T06:51:39.852Z,24.6
2017-09-29T06:52:41.993Z,24.7
2017-09-29T06:53:44.182Z,24.7
2017-09-29T06:54:45.981Z,24.8
2017-09-29T06:55:47.772Z,24.7
2017-09-29T06:56:49.946Z,24.7
2017-09-29T06:57:51.454Z,24.6
2017-09-29T06:58:53.248Z,24.7
2017-09-29T06:59:55.068Z,24.6
2017-09-29T07:00:56.891Z,24.7
2017-09-29T07:01:59.056Z,24.7
2017-09-29T07:03:00.868Z,24.7
2017-09-29T07:04:02.346Z,24.7
2017-09-29T07:05:04.517Z,24.7
2017-09-29T07:06:06.424Z,24.7
2017-09-29T07:07:08.195Z,24.7
2017-09-29T07:08:10.003Z,24.7
2017-09-29T07:09:12.211Z,24.7
2017-09-29T07:10:14.382Z,24.7
2017-09-29T07:11:15.819Z,24.7
2017-09-29T07:12:17.946Z,24.7
2017-09-29T07:13:19.814Z,24.7
2017-09-29T07:14:21.305Z,24.7
2017-09-29T07:15:23.143Z,24.7
2017-09-29T07:16:24.650Z,24.7
2017-09-29T07:17:26.443Z,24.8
2017-09-29T07:18:27.900Z,24.7
2017-09-29T07:19:29.064Z,24.7
2017-09-29T07:20:30.576Z,24.7
2017-09-29T07:21:32.478Z,24.8
2017-09-29T07:22:34.315Z,24.7
2017-09-29T07:23:36.126Z,24.7
2017-09-29T07:24:37.598Z,24.7
2017-09-29T07:25:39.735Z,24.7
2017-09-29T07:26:41.526Z,24.7
2017-09-29T07:27:43.659Z,24.7
2017-09-29T07:28:45.120Z,24.7
2017-09-29T07:29:46.581Z,24.8
2017-09-29T07:30:48.023Z,24.7
2017-09-29T07:31:49.133Z,24.7
2017-09-29T07:32:50.933Z,24.8
2017-09-29T07:33:52.732Z,24.8
2017-09-29T07:34:54.859Z,24.8
2017-09-29T07:35:56.300Z,24.8
2017-09-29T07:36:58.077Z,24.8
2017-09-29T07:37:59.874Z,24.8
2017-09-29T07:39:01.871Z,24.8
2017-09-29T07:40:03.665Z,24.8
2017-09-29T07:41:05.465Z,24.9
2017-09-29T07:42:07.261Z,24.8
2017-09-29T07:43:09.057Z,24.9
2017-09-29T07:44:10.853Z,24.9
2017-09-29T07:45:12.648Z,24.9
2017-09-29T07:46:14.091Z,24.9
2017-09-29T07:47:15.532Z,24.9
2017-09-29T07:48:17.331Z,24.9
2017-09-29T07:49:19.104Z,24.9
2017-09-29T07:50:21.234Z,24.9
2017-09-29T07:51:23.367Z,24.9
2017-09-29T07:52:25.497Z,25
2017-09-29T07:53:26.957Z,24.9
2017-09-29T07:54:29.092Z,25
2017-09-29T07:55:30.888Z,25
2017-09-29T07:56:33.505Z,24.9
2017-09-29T07:57:35.738Z,24.9
2017-09-29T07:58:37.185Z,25
2017-09-29T07:59:39.323Z,25
2017-09-29T08:00:41.146Z,25
2017-09-29T08:01:42.943Z,25
2017-09-29T08:02:45.072Z,25
2017-09-29T08:03:46.874Z,25
2017-09-29T08:04:48.674Z,24.9
2017-09-29T08:05:50.452Z,25
2017-09-29T08:06:52.258Z,25
2017-09-29T08:07:54.062Z,25
2017-09-29T08:08:55.858Z,25
2017-09-29T08:09:57.986Z,25
2017-09-29T08:11:00.133Z,25.1
2017-09-29T08:12:02.263Z,25
2017-09-29T08:13:03.373Z,25.1
2017-09-29T08:14:05.518Z,25.1
2017-09-29T08:15:07.652Z,25.1
2017-09-29T08:16:08.785Z,25
2017-09-29T08:17:09.894Z,25.1
2017-09-29T08:18:11.689Z,25
2017-09-29T08:19:13.486Z,25.1
2017-09-29T08:20:15.274Z,25.1
2017-09-29T08:21:17.068Z,25
2017-09-29T08:22:18.192Z,25.1
2017-09-29T08:23:20.319Z,25.1
2017-09-29T08:24:22.114Z,25
2017-09-29T08:25:23.242Z,25
2017-09-29T08:26:25.014Z,25.1
2017-09-29T08:27:27.145Z,25.1
2017-09-29T08:28:28.923Z,25.1
2017-09-29T08:29:31.056Z,25.1
2017-09-29T08:30:32.157Z,25
2017-09-29T08:31:33.955Z,25
2017-09-29T08:32:36.083Z,25
2017-09-29T08:33:37.881Z,25.1
2017-09-29T08:34:39.319Z,25.1
2017-09-29T08:35:41.117Z,25.1
2017-09-29T08:36:42.237Z,25
2017-09-29T08:37:44.028Z,25.1
2017-09-29T08:38:45.491Z,25.1
2017-09-29T08:39:47.647Z,25.1
2017-09-29T08:40:49.446Z,25.1
2017-09-29T08:41:51.224Z,25.1
2017-09-29T08:42:53.355Z,25.2
2017-09-29T08:43:55.165Z,25.1
2017-09-29T08:44:57.294Z,25.1
2017-09-29T08:45:59.422Z,25.2
2017-09-29T08:47:01.217Z,25.1
2017-09-29T08:48:03.017Z,25.1
2017-09-29T08:49:04.887Z,25.1
2017-09-29T08:50:06.662Z,25.1
2017-09-29T08:51:08.118Z,25.2
2017-09-29T08:52:10.250Z,25.1
2017-09-29T08:53:12.043Z,25.1
2017-09-29T08:54:13.841Z,25.2
2017-09-29T08:55:15.641Z,25.1
2017-09-29T08:56:17.435Z,25.1
2017-09-29T08:57:19.222Z,25.1
2017-09-29T08:58:21.046Z,25.1
2017-09-29T08:59:22.155Z,25.1
2017-09-29T09:00:24.285Z,25.2
2017-09-29T09:01:26.142Z,25.1
2017-09-29T09:02:27.608Z,25.1
2017-09-29T09:03:28.734Z,25.1
2017-09-29T09:04:29.845Z,25.2
2017-09-29T09:05:31.638Z,25.1
2017-09-29T09:06:33.075Z,25.2
2017-09-29T09:07:33.848Z,25.1
2017-09-29T09:08:35.309Z,25.1
2017-09-29T09:09:36.769Z,25.2
2017-09-29T09:10:38.901Z,25.2
2017-09-29T09:11:40.363Z,25.2
2017-09-29T09:12:42.158Z,25.2
2017-09-29T09:13:43.956Z,25.2
2017-09-29T09:14:44.721Z,25.2
2017-09-29T09:15:46.516Z,25.2
2017-09-29T09:16:48.314Z,25.3
2017-09-29T09:17:49.777Z,25.2
2017-09-29T09:18:51.208Z,25.2
2017-09-29T09:19:53.005Z,25.3
2017-09-29T09:20:54.445Z,25.3
2017-09-29T09:21:56.239Z,25.2
2017-09-29T09:22:58.369Z,25.3
2017-09-29T09:23:59.496Z,25.2
2017-09-29T09:25:01.296Z,25.3
2017-09-29T09:26:03.429Z,25.3
2017-09-29T09:27:05.225Z,25.3
2017-09-29T09:28:06.690Z,25.3
2017-09-29T09:29:08.151Z,25.2
2017-09-29T09:30:09.923Z,25.3
2017-09-29T09:31:11.718Z,25.2
2017-09-29T09:32:13.514Z,25.2
2017-09-29T09:33:15.309Z,25.2
2017-09-29T09:34:16.420Z,25.2
2017-09-29T09:35:18.228Z,25.3
2017-09-29T09:36:20.017Z,25.2
2017-09-29T09:37:21.462Z,25.3
2017-09-29T09:38:22.923Z,25.3
2017-09-29T09:39:24.718Z,25.3
2017-09-29T09:40:26.512Z,25.3
2017-09-29T09:41:28.313Z,25.3
2017-09-29T09:42:30.441Z,25.3
2017-09-29T09:43:31.545Z,25.4
2017-09-29T09:44:33.342Z,25.3
2017-09-29T09:45:34.499Z,25.3
2017-09-29T09:46:36.624Z,25.3
2017-09-29T09:47:38.757Z,25.4
2017-09-29T09:48:40.221Z,25.3
2017-09-29T09:49:41.687Z,25.3
2017-09-29T09:50:43.171Z,25.3
2017-09-29T09:51:44.964Z,25.3
2017-09-29T09:52:46.740Z,25.3
2017-09-29T09:53:48.539Z,25.3
2017-09-29T09:54:49.999Z,25.4
2017-09-29T09:55:52.129Z,25.4
2017-09-29T09:56:54.261Z,25.3
2017-09-29T09:57:56.389Z,25.4
2017-09-29T09:58:57.847Z,25.4
2017-09-29T09:59:59.285Z,25.3
2017-09-29T10:01:01.080Z,25.4
2017-09-29T10:02:02.208Z,25.3
2017-09-29T10:03:04.005Z,25.4
2017-09-29T10:04:05.498Z,25.4
2017-09-29T10:05:07.626Z,25.4
2017-09-29T10:06:09.423Z,25.4
2017-09-29T10:07:10.864Z,25.4
2017-09-29T10:08:12.660Z,25.4
2017-09-29T10:09:14.460Z,25.4
2017-09-29T10:10:16.233Z,25.4
2017-09-29T10:11:18.361Z,25.4
2017-09-29T10:12:19.830Z,25.4
2017-09-29T10:13:21.270Z,25.4
2017-09-29T10:14:23.400Z,25.5
2017-09-29T10:15:25.199Z,25.4
2017-09-29T10:16:26.635Z,25.5
2017-09-29T10:17:28.434Z,25.4
2017-09-29T10:18:30.224Z,25.4
2017-09-29T10:19:31.336Z,25.5
2017-09-29T10:20:33.463Z,25.5
2017-09-29T10:21:34.906Z,25.4
2017-09-29T10:22:36.343Z,25.4
2017-09-29T10:23:37.807Z,25.5
2017-09-29T10:24:39.245Z,25.4
2017-09-29T10:25:40.345Z,25.5
2017-09-29T10:26:42.147Z,25.4
2017-09-29T10:27:43.257Z,25.4
2017-09-29T10:28:44.695Z,25.4
2017-09-29T10:29:46.466Z,25.4
2017-09-29T10:30:47.935Z,25.5
2017-09-29T10:31:50.074Z,25.5
2017-09-29T10:32:52.204Z,25.4
2017-09-29T10:33:54.336Z,25.4
2017-09-29T10:34:55.777Z,25.4
2017-09-29T10:35:56.903Z,25.5
2017-09-29T10:36:58.367Z,25.5
2017-09-29T10:37:59.804Z,25.4
2017-09-29T10:39:01.939Z,25.5
2017-09-29T10:40:03.732Z,25.5
2017-09-29T10:41:05.525Z,25.5
2017-09-29T10:42:07.320Z,25.5
2017-09-29T10:43:08.752Z,25.4
2017-09-29T10:44:10.549Z,25.4
2017-09-29T10:45:11.655Z,25.5
2017-09-29T10:46:13.094Z,25.5
2017-09-29T10:47:13.866Z,25.5
2017-09-29T10:48:15.336Z,25.5
2017-09-29T10:49:17.129Z,25.5
2017-09-29T10:50:19.264Z,25.5
2017-09-29T10:51:21.258Z,25.5
2017-09-29T10:52:23.392Z,25.5
2017-09-29T10:53:24.853Z,25.5
2017-09-29T10:54:26.328Z,25.5
2017-09-29T10:55:27.393Z,25.5
2017-09-29T10:56:29.576Z,25.5
2017-09-29T10:57:31.034Z,25.5
2017-09-29T10:58:32.828Z,25.5
2017-09-29T10:59:34.625Z,25.5
2017-09-29T11:00:36.396Z,25.5
2017-09-29T11:01:37.498Z,25.6
2017-09-29T11:02:39.296Z,25.5
2017-09-29T11:03:41.116Z,25.5
2017-09-29T11:04:42.914Z,25.6
2017-09-29T11:05:44.710Z,25.5
2017-09-29T11:06:46.482Z,25.5
2017-09-29T11:07:47.943Z,25.6
2017-09-29T11:08:49.403Z,25.5
2017-09-29T11:09:51.176Z,25.5
2017-09-29T11:10:52.638Z,25.5
2017-09-29T11:11:54.158Z,25.5
2017-09-29T11:12:55.951Z,25.5
2017-09-29T11:13:57.417Z,25.5
2017-09-29T11:14:59.550Z,25.5
2017-09-29T11:16:01.677Z,25.6
2017-09-29T11:17:03.473Z,25.6
2017-09-29T11:18:04.577Z,25.6
2017-09-29T11:19:06.376Z,25.6
2017-09-29T11:20:08.517Z,25.6
2017-09-29T11:21:10.307Z,25.6
2017-09-29T11:22:12.101Z,25.6
2017-09-29T11:23:14.232Z,25.5
2017-09-29T11:24:15.670Z,25.6
2017-09-29T11:25:17.468Z,25.6
2017-09-29T11:26:19.267Z,25.5
2017-09-29T11:27:20.914Z,25.6
2017-09-29T11:28:22.714Z,25.6
2017-09-29T11:29:24.509Z,25.6
2017-09-29T11:30:26.308Z,25.6
2017-09-29T11:31:27.437Z,25.6
2017-09-29T11:32:28.544Z,25.6
2017-09-29T11:33:29.980Z,25.5
2017-09-29T11:34:31.086Z,25.5
2017-09-29T11:35:33.219Z,25.6
2017-09-29T11:36:35.014Z,25.6
2017-09-29T11:37:36.789Z,25.7
2017-09-29T11:38:38.246Z,25.6
2017-09-29T11:39:39.351Z,25.7
2017-09-29T11:40:41.146Z,25.6
2017-09-29T11:41:43.283Z,25.6
2017-09-29T11:42:45.126Z,25.6
2017-09-29T11:43:46.564Z,25.6
2017-09-29T11:44:48.334Z,25.7
2017-09-29T11:45:50.461Z,25.6
2017-09-29T11:46:52.254Z,25.6
2017-09-29T11:47:54.387Z,25.7
2017-09-29T11:48:55.846Z,25.7
2017-09-29T11:49:57.639Z,25.7
2017-09-29T11:50:59.440Z,25.7
2017-09-29T11:52:01.570Z,25.7
2017-09-29T11:53:03.030Z,25.6
2017-09-29T11:54:04.472Z,25.7
2017-09-29T11:55:05.576Z,25.7
2017-09-29T11:56:07.372Z,25.7
2017-09-29T11:57:09.164Z,25.7
2017-09-29T11:58:11.010Z,25.8
2017-09-29T11:59:13.145Z,25.7
2017-09-29T12:00:15.278Z,25.6
2017-09-29T12:01:17.095Z,25.6
2017-09-29T12:02:18.863Z,25.6
2017-09-29T12:03:20.858Z,25.7
2017-09-29T12:04:22.992Z,25.7
2017-09-29T12:05:24.449Z,25.7
2017-09-29T12:06:26.243Z,25.6
2017-09-29T12:07:28.373Z,25.7
2017-09-29T12:08:30.508Z,25.7
2017-09-29T12:09:32.303Z,25.7
2017-09-29T12:10:34.095Z,25.7
2017-09-29T12:11:36.224Z,25.7
2017-09-29T12:12:37.666Z,25.6
2017-09-29T12:13:39.127Z,25.8
2017-09-29T12:14:41.255Z,25.6
2017-09-29T12:15:42.733Z,25.8
2017-09-29T12:16:44.864Z,25.7
2017-09-29T12:17:46.307Z,25.8
2017-09-29T12:18:47.082Z,25.8
2017-09-29T12:19:48.879Z,25.8
2017-09-29T12:20:51.008Z,25.8
2017-09-29T12:21:52.810Z,25.8
2017-09-29T12:22:54.608Z,25.8
2017-09-29T12:23:56.067Z,25.8
2017-09-29T12:24:57.864Z,25.8
2017-09-29T12:25:59.641Z,25.8
2017-09-29T12:27:01.438Z,25.7
2017-09-29T12:28:03.564Z,25.7
2017-09-29T12:29:05.407Z,25.7
2017-09-29T12:30:06.857Z,25.7
2017-09-29T12:31:08.658Z,25.8
2017-09-29T12:32:10.431Z,25.8
2017-09-29T12:33:12.231Z,25.7
2017-09-29T12:34:14.361Z,25.8
2017-09-29T12:35:16.490Z,25.8
2017-09-29T12:36:18.285Z,25.8
2017-09-29T12:37:20.415Z,25.8
2017-09-29T12:38:22.215Z,25.7
2017-09-29T12:39:23.652Z,25.7
2017-09-29T12:40:25.089Z,25.7
2017-09-29T12:41:26.532Z,25.7
2017-09-29T12:42:28.327Z,25.7
2017-09-29T12:43:29.789Z,25.7
2017-09-29T12:44:31.588Z,25.6
2017-09-29T12:45:33.378Z,25.7
2017-09-29T12:46:35.177Z,25.8
2017-09-29T12:47:36.280Z,25.7
2017-09-29T12:48:38.414Z,25.7
2017-09-29T12:49:40.539Z,25.7
2017-09-29T12:50:42.674Z,25.8
2017-09-29T12:51:44.802Z,25.8
2017-09-29T12:52:46.599Z,25.8
2017-09-29T12:53:48.372Z,25.8
2017-09-29T12:54:50.167Z,25.8
2017-09-29T12:55:52.300Z,25.8
2017-09-29T12:56:53.760Z,25.8
2017-09-29T12:57:55.892Z,25.8
2017-09-29T12:58:57.352Z,25.8
2017-09-29T12:59:59.147Z,25.8
2017-09-29T13:01:00.608Z,25.9
2017-09-29T13:02:02.067Z,25.8
2017-09-29T13:03:03.513Z,25.9
2017-09-29T13:04:04.950Z,25.8
2017-09-29T13:05:05.722Z,25.8
2017-09-29T13:06:07.161Z,25.9
2017-09-29T13:07:08.622Z,25.9
2017-09-29T13:08:10.417Z,25.8
2017-09-29T13:09:11.881Z,25.9
2017-09-29T13:10:13.047Z,25.9
2017-09-29T13:11:14.499Z,25.9
2017-09-29T13:12:16.295Z,25.9
2017-09-29T13:13:18.093Z,25.9
2017-09-29T13:14:19.200Z,25.9
2017-09-29T13:15:20.305Z,25.8
2017-09-29T13:16:22.434Z,25.9
2017-09-29T13:17:24.239Z,25.8
2017-09-29T13:18:26.051Z,25.8
2017-09-29T13:19:28.173Z,25.8
2017-09-29T13:20:29.969Z,25.8
2017-09-29T13:21:32.097Z,25.9
2017-09-29T13:22:33.870Z,25.9
2017-09-29T13:23:35.334Z,25.9
2017-09-29T13:24:36.769Z,25.8
2017-09-29T13:25:38.308Z,25.9
2017-09-29T13:26:40.436Z,25.8
2017-09-29T13:27:41.881Z,25.9
2017-09-29T13:28:43.653Z,25.9
2017-09-29T13:29:45.449Z,25.8
2017-09-29T13:30:47.243Z,25.9
2017-09-29T13:31:48.686Z,25.8
2017-09-29T13:32:50.818Z,25.9
2017-09-29T13:33:52.613Z,25.9
2017-09-29T13:34:54.740Z,25.9
2017-09-29T13:35:56.567Z,25.8
2017-09-29T13:36:58.360Z,25.9
2017-09-29T13:38:00.133Z,25.9
2017-09-29T13:39:01.933Z,25.8
2017-09-29T13:40:03.732Z,25.9
2017-09-29T13:41:05.505Z,25.9
2017-09-29T13:42:07.287Z,25.9
2017-09-29T13:43:08.750Z,25.9